sensor_id;sensor_type;location;lat;lon;timestamp;pressure;altitude;pressure_sealevel;temperature;humidity
2675;BME280;1347;42.122;24.746;2023-04-01T00:01:56;98730.75;;;10.74;78.68
2675;BME280;1347;42.122;24.746;2023-04-01T00:04:23;98721.72;;;10.66;78.78
2675;BME280;1347;42.122;24.746;2023-04-01T00:06:51;98721.69;;;10.48;79.31
2675;BME280;1347;42.122;24.746;2023-04-01T00:09:18;98721.66;;;10.38;79.48
2675;BME280;1347;42.122;24.746;2023-04-01T00:11:45;98728.66;;;10.28;80.09
2675;BME280;1347;42.122;24.746;2023-04-01T00:14:12;98725.13;;;10.20;79.67
2675;BME280;1347;42.122;24.746;2023-04-01T00:16:39;98734.44;;;10.05;80.07
2675;BME280;1347;42.122;24.746;2023-04-01T00:19:05;98734.75;;;9.93;80.91
2675;BME280;1347;42.122;24.746;2023-04-01T00:21:32;98735.16;;;9.91;80.45
2675;BME280;1347;42.122;24.746;2023-04-01T00:24:01;98733.50;;;9.73;81.25
2675;BME280;1347;42.122;24.746;2023-04-01T00:26:28;98738.16;;;9.69;81.41
2675;BME280;1347;42.122;24.746;2023-04-01T00:28:55;98744.06;;;9.78;80.82
2675;BME280;1347;42.122;24.746;2023-04-01T00:31:22;98746.84;;;9.85;81.08
2675;BME280;1347;42.122;24.746;2023-04-01T00:33:48;98736.31;;;9.90;80.69
2675;BME280;1347;42.122;24.746;2023-04-01T00:36:18;98734.34;;;9.91;80.52
2675;BME280;1347;42.122;24.746;2023-04-01T00:38:45;98729.66;;;9.91;81.03
2675;BME280;1347;42.122;24.746;2023-04-01T00:41:15;98732.47;;;10.02;80.89
2675;BME280;1347;42.122;24.746;2023-04-01T00:43:44;98729.75;;;10.06;81.04
2675;BME280;1347;42.122;24.746;2023-04-01T00:46:11;98734.44;;;10.09;80.82
2675;BME280;1347;42.122;24.746;2023-04-01T00:48:39;98729.78;;;10.16;80.81
2675;BME280;1347;42.122;24.746;2023-04-01T00:51:10;98728.25;;;10.22;80.58
2675;BME280;1347;42.122;24.746;2023-04-01T00:53:41;98731.41;;;10.28;80.32
2675;BME280;1347;42.122;24.746;2023-04-01T00:56:12;98732.97;;;10.29;80.57
2675;BME280;1347;42.122;24.746;2023-04-01T00:58:44;98736.53;;;10.40;80.16
2675;BME280;1347;42.122;24.746;2023-04-01T01:01:12;98725.59;;;10.47;79.74
2675;BME280;1347;42.122;24.746;2023-04-01T01:03:39;98723.66;;;10.55;79.62
2675;BME280;1347;42.122;24.746;2023-04-01T01:06:23;98713.47;;;10.59;79.54
2675;BME280;1347;42.122;24.746;2023-04-01T01:09:06;98711.94;;;10.65;79.44
2675;BME280;1347;42.122;24.746;2023-04-01T01:11:37;98722.13;;;10.75;78.73
2675;BME280;1347;42.122;24.746;2023-04-01T01:14:13;98718.59;;;10.82;78.39
2675;BME280;1347;42.122;24.746;2023-04-01T01:16:44;98718.22;;;10.87;78.15
2675;BME280;1347;42.122;24.746;2023-04-01T01:19:32;98721.34;;;10.92;77.92
2675;BME280;1347;42.122;24.746;2023-04-01T01:22:21;98724.09;;;10.99;78.07
2675;BME280;1347;42.122;24.746;2023-04-01T01:25:02;98722.13;;;11.00;77.42
2675;BME280;1347;42.122;24.746;2023-04-01T01:27:37;98725.66;;;11.04;77.71
2675;BME280;1347;42.122;24.746;2023-04-01T01:30:37;98725.28;;;11.09;77.23
2675;BME280;1347;42.122;24.746;2023-04-01T01:33:34;98723.72;;;11.19;76.97
2675;BME280;1347;42.122;24.746;2023-04-01T01:36:08;98728.03;;;11.23;76.74
2675;BME280;1347;42.122;24.746;2023-04-01T01:38:37;98718.63;;;11.24;76.94
2675;BME280;1347;42.122;24.746;2023-04-01T01:41:06;98708.00;;;11.30;76.88
2675;BME280;1347;42.122;24.746;2023-04-01T01:43:38;98703.72;;;11.29;76.94
2675;BME280;1347;42.122;24.746;2023-04-01T01:46:08;98713.50;;;11.30;76.72
2675;BME280;1347;42.122;24.746;2023-04-01T01:48:37;98710.00;;;11.29;76.94
2675;BME280;1347;42.122;24.746;2023-04-01T01:51:06;98699.03;;;11.29;76.61
2675;BME280;1347;42.122;24.746;2023-04-01T01:53:34;98700.19;;;11.28;76.77
2675;BME280;1347;42.122;24.746;2023-04-01T01:56:01;98697.06;;;11.23;76.33
2675;BME280;1347;42.122;24.746;2023-04-01T01:58:30;98680.63;;;11.16;76.92
2675;BME280;1347;42.122;24.746;2023-04-01T02:01:03;98684.94;;;10.78;78.79
2675;BME280;1347;42.122;24.746;2023-04-01T02:03:34;98681.34;;;10.42;79.51
2675;BME280;1347;42.122;24.746;2023-04-01T02:06:06;98682.06;;;10.17;80.92
2675;BME280;1347;42.122;24.746;2023-04-01T02:08:36;98682.41;;;10.05;81.43
2675;BME280;1347;42.122;24.746;2023-04-01T02:11:11;98678.47;;;9.95;81.82
2675;BME280;1347;42.122;24.746;2023-04-01T02:13:41;98665.91;;;9.84;82.07
2675;BME280;1347;42.122;24.746;2023-04-01T02:16:12;98671.34;;;9.77;82.11
2675;BME280;1347;42.122;24.746;2023-04-01T02:18:41;98673.25;;;9.66;82.61
2675;BME280;1347;42.122;24.746;2023-04-01T02:21:10;98688.09;;;9.65;82.60
2675;BME280;1347;42.122;24.746;2023-04-01T02:23:39;98696.34;;;9.72;82.21
2675;BME280;1347;42.122;24.746;2023-04-01T02:26:07;98699.09;;;9.79;81.79
2675;BME280;1347;42.122;24.746;2023-04-01T02:28:38;98694.06;;;9.88;81.43
2675;BME280;1347;42.122;24.746;2023-04-01T02:31:08;98680.00;;;9.89;81.42
2675;BME280;1347;42.122;24.746;2023-04-01T02:33:36;98671.81;;;10.00;80.80
2675;BME280;1347;42.122;24.746;2023-04-01T02:36:04;98665.59;;;10.07;80.79
2675;BME280;1347;42.122;24.746;2023-04-01T02:38:35;98661.69;;;10.11;80.60
2675;BME280;1347;42.122;24.746;2023-04-01T02:41:02;98662.09;;;10.13;80.28
2675;BME280;1347;42.122;24.746;2023-04-01T02:43:30;98665.22;;;10.15;80.07
2675;BME280;1347;42.122;24.746;2023-04-01T02:45:57;98662.06;;;10.10;80.52
2675;BME280;1347;42.122;24.746;2023-04-01T02:48:24;98670.28;;;10.06;80.64
2675;BME280;1347;42.122;24.746;2023-04-01T02:50:51;98670.69;;;10.12;80.33
2675;BME280;1347;42.122;24.746;2023-04-01T02:53:18;98671.88;;;10.07;80.29
2675;BME280;1347;42.122;24.746;2023-04-01T02:55:46;98676.94;;;10.09;79.86
2675;BME280;1347;42.122;24.746;2023-04-01T02:58:15;98669.88;;;10.04;80.09
2675;BME280;1347;42.122;24.746;2023-04-01T03:00:42;98667.88;;;9.90;80.96
2675;BME280;1347;42.122;24.746;2023-04-01T03:03:09;98663.91;;;9.74;82.05
2675;BME280;1347;42.122;24.746;2023-04-01T03:05:38;98657.31;;;9.85;81.54
2675;BME280;1347;42.122;24.746;2023-04-01T03:08:05;98660.81;;;9.89;81.38
2675;BME280;1347;42.122;24.746;2023-04-01T03:10:32;98669.75;;;9.72;82.67
2675;BME280;1347;42.122;24.746;2023-04-01T03:13:00;98671.47;;;9.26;84.15
2675;BME280;1347;42.122;24.746;2023-04-01T03:15:27;98672.91;;;9.05;85.16
2675;BME280;1347;42.122;24.746;2023-04-01T03:17:54;98676.28;;;8.92;85.67
2675;BME280;1347;42.122;24.746;2023-04-01T03:20:21;98667.97;;;8.74;86.63
2675;BME280;1347;42.122;24.746;2023-04-01T03:22:47;98667.00;;;8.52;87.83
2675;BME280;1347;42.122;24.746;2023-04-01T03:25:14;98666.13;;;8.44;88.47
2675;BME280;1347;42.122;24.746;2023-04-01T03:27:41;98652.84;;;8.43;88.72
2675;BME280;1347;42.122;24.746;2023-04-01T03:30:10;98655.97;;;8.41;89.25
2675;BME280;1347;42.122;24.746;2023-04-01T03:32:37;98659.66;;;8.26;89.72
2675;BME280;1347;42.122;24.746;2023-04-01T03:35:05;98655.47;;;8.32;89.59
2675;BME280;1347;42.122;24.746;2023-04-01T03:37:32;98641.84;;;8.32;89.74
2675;BME280;1347;42.122;24.746;2023-04-01T03:39:59;98630.13;;;8.32;89.80
2675;BME280;1347;42.122;24.746;2023-04-01T03:42:25;98623.94;;;8.38;89.50
2675;BME280;1347;42.122;24.746;2023-04-01T03:44:52;98628.66;;;8.41;89.08
2675;BME280;1347;42.122;24.746;2023-04-01T03:47:21;98630.63;;;8.44;89.07
2675;BME280;1347;42.122;24.746;2023-04-01T03:49:48;98638.06;;;8.47;88.44
2675;BME280;1347;42.122;24.746;2023-04-01T03:52:15;98636.84;;;8.45;88.44
2675;BME280;1347;42.122;24.746;2023-04-01T03:54:41;98638.03;;;8.44;88.74
2675;BME280;1347;42.122;24.746;2023-04-01T03:57:08;98641.53;;;8.41;89.22
2675;BME280;1347;42.122;24.746;2023-04-01T03:59:36;98633.38;;;8.48;88.75
2675;BME280;1347;42.122;24.746;2023-04-01T04:02:02;98635.00;;;8.53;88.48
2675;BME280;1347;42.122;24.746;2023-04-01T04:04:31;98614.31;;;8.55;88.43
2675;BME280;1347;42.122;24.746;2023-04-01T04:06:58;98619.78;;;8.55;88.72
2675;BME280;1347;42.122;24.746;2023-04-01T04:09:25;98629.97;;;8.58;88.88
2675;BME280;1347;42.122;24.746;2023-04-01T04:11:52;98635.56;;;8.72;88.23
2675;BME280;1347;42.122;24.746;2023-04-01T04:14:19;98630.53;;;8.81;87.96
2675;BME280;1347;42.122;24.746;2023-04-01T04:16:46;98610.69;;;8.92;87.65
2675;BME280;1347;42.122;24.746;2023-04-01T04:19:12;98615.03;;;9.00;88.28
2675;BME280;1347;42.122;24.746;2023-04-01T04:21:41;98622.50;;;9.06;88.60
2675;BME280;1347;42.122;24.746;2023-04-01T04:24:08;98626.44;;;9.09;89.10
2675;BME280;1347;42.122;24.746;2023-04-01T04:26:36;98633.13;;;9.18;89.08
2675;BME280;1347;42.122;24.746;2023-04-01T04:29:03;98626.16;;;9.25;88.76
2675;BME280;1347;42.122;24.746;2023-04-01T04:31:30;98627.38;;;9.34;88.75
2675;BME280;1347;42.122;24.746;2023-04-01T04:33:58;98624.25;;;9.39;88.54
2675;BME280;1347;42.122;24.746;2023-04-01T04:36:27;98623.84;;;9.37;88.42
2675;BME280;1347;42.122;24.746;2023-04-01T04:38:55;98621.56;;;9.43;88.60
2675;BME280;1347;42.122;24.746;2023-04-01T04:41:23;98629.78;;;9.50;88.00
2675;BME280;1347;42.122;24.746;2023-04-01T04:43:53;98630.59;;;9.57;87.69
2675;BME280;1347;42.122;24.746;2023-04-01T04:46:20;98629.84;;;9.64;87.65
2675;BME280;1347;42.122;24.746;2023-04-01T04:48:47;98633.78;;;9.67;87.44
2675;BME280;1347;42.122;24.746;2023-04-01T04:51:14;98633.00;;;9.73;87.50
2675;BME280;1347;42.122;24.746;2023-04-01T04:53:42;98636.53;;;9.77;86.91
2675;BME280;1347;42.122;24.746;2023-04-01T04:56:11;98648.28;;;9.81;87.09
2675;BME280;1347;42.122;24.746;2023-04-01T04:58:38;98646.38;;;9.92;86.29
2675;BME280;1347;42.122;24.746;2023-04-01T05:01:07;98638.94;;;9.93;86.55
2675;BME280;1347;42.122;24.746;2023-04-01T05:03:34;98627.59;;;9.98;86.29
2675;BME280;1347;42.122;24.746;2023-04-01T05:06:01;98620.59;;;10.04;86.10
2675;BME280;1347;42.122;24.746;2023-04-01T05:08:28;98619.81;;;10.11;85.75
2675;BME280;1347;42.122;24.746;2023-04-01T05:10:55;98637.06;;;10.15;85.96
2675;BME280;1347;42.122;24.746;2023-04-01T05:13:24;98632.81;;;10.42;85.16
2675;BME280;1347;42.122;24.746;2023-04-01T05:15:51;98632.84;;;10.60;83.90
2675;BME280;1347;42.122;24.746;2023-04-01T05:18:18;98639.50;;;10.73;83.39
2675;BME280;1347;42.122;24.746;2023-04-01T05:20:48;98634.78;;;10.81;83.20
2675;BME280;1347;42.122;24.746;2023-04-01T05:23:15;98630.09;;;10.88;82.63
2675;BME280;1347;42.122;24.746;2023-04-01T05:25:43;98624.22;;;10.86;82.69
2675;BME280;1347;42.122;24.746;2023-04-01T05:28:10;98624.63;;;10.74;82.90
2675;BME280;1347;42.122;24.746;2023-04-01T05:30:41;98620.72;;;10.68;83.23
2675;BME280;1347;42.122;24.746;2023-04-01T05:33:08;98620.28;;;10.59;83.61
2675;BME280;1347;42.122;24.746;2023-04-01T05:35:35;98624.22;;;10.54;84.08
2675;BME280;1347;42.122;24.746;2023-04-01T05:38:02;98612.88;;;10.56;84.53
2675;BME280;1347;42.122;24.746;2023-04-01T05:40:29;98600.34;;;10.55;84.35
2675;BME280;1347;42.122;24.746;2023-04-01T05:42:57;98590.19;;;10.55;84.28
2675;BME280;1347;42.122;24.746;2023-04-01T05:45:24;98591.72;;;10.49;84.48
2675;BME280;1347;42.122;24.746;2023-04-01T05:47:53;98591.72;;;10.49;84.25
2675;BME280;1347;42.122;24.746;2023-04-01T05:50:20;98578.03;;;10.49;84.75
2675;BME280;1347;42.122;24.746;2023-04-01T05:52:47;98567.88;;;10.46;84.96
2675;BME280;1347;42.122;24.746;2023-04-01T05:55:13;98560.41;;;10.50;84.82
2675;BME280;1347;42.122;24.746;2023-04-01T05:57:40;98567.47;;;10.48;84.83
2675;BME280;1347;42.122;24.746;2023-04-01T06:00:08;98549.06;;;10.62;84.23
2675;BME280;1347;42.122;24.746;2023-04-01T06:02:36;98560.81;;;10.66;84.24
2675;BME280;1347;42.122;24.746;2023-04-01T06:05:13;98568.22;;;10.87;83.90
2675;BME280;1347;42.122;24.746;2023-04-01T06:07:41;98565.84;;;11.03;83.21
2675;BME280;1347;42.122;24.746;2023-04-01T06:10:16;98581.47;;;11.14;82.21
2675;BME280;1347;42.122;24.746;2023-04-01T06:12:50;98553.25;;;11.17;82.34
2675;BME280;1347;42.122;24.746;2023-04-01T06:15:28;98533.69;;;11.07;82.74
2675;BME280;1347;42.122;24.746;2023-04-01T06:18:12;98528.53;;;11.27;82.22
2675;BME280;1347;42.122;24.746;2023-04-01T06:20:53;98515.22;;;11.26;81.95
2675;BME280;1347;42.122;24.746;2023-04-01T06:23:40;98523.81;;;11.31;81.96
2675;BME280;1347;42.122;24.746;2023-04-01T06:26:23;98517.44;;;11.52;81.42
2675;BME280;1347;42.122;24.746;2023-04-01T06:35:14;98539.09;;;11.39;82.68
2675;BME280;1347;42.122;24.746;2023-04-01T06:37:56;98537.75;;;11.69;81.15
2675;BME280;1347;42.122;24.746;2023-04-01T06:40:45;98530.66;;;11.78;80.79
2675;BME280;1347;42.122;24.746;2023-04-01T06:43:21;98540.03;;;11.85;80.92
2675;BME280;1347;42.122;24.746;2023-04-01T06:45:56;98533.69;;;11.98;80.35
2675;BME280;1347;42.122;24.746;2023-04-01T06:48:46;98524.59;;;12.08;79.93
2675;BME280;1347;42.122;24.746;2023-04-01T06:51:23;98523.81;;;12.04;80.50
2675;BME280;1347;42.122;24.746;2023-04-01T06:54:00;98529.59;;;12.21;79.70
2675;BME280;1347;42.122;24.746;2023-04-01T06:56:30;98533.06;;;12.28;79.68
2675;BME280;1347;42.122;24.746;2023-04-01T06:58:58;98523.75;;;12.15;79.90
2675;BME280;1347;42.122;24.746;2023-04-01T07:01:30;98534.34;;;12.16;80.43
2675;BME280;1347;42.122;24.746;2023-04-01T07:04:03;98536.91;;;12.41;80.00
2675;BME280;1347;42.122;24.746;2023-04-01T07:06:36;98541.47;;;12.55;78.54
2675;BME280;1347;42.122;24.746;2023-04-01T07:09:10;98530.41;;;12.62;78.46
2675;BME280;1347;42.122;24.746;2023-04-01T07:11:40;98518.66;;;12.62;78.67
2675;BME280;1347;42.122;24.746;2023-04-01T07:14:12;98511.25;;;12.55;79.00
2675;BME280;1347;42.122;24.746;2023-04-01T07:16:44;98511.25;;;12.55;79.40
2675;BME280;1347;42.122;24.746;2023-04-01T07:19:18;98505.94;;;12.75;79.21
2675;BME280;1347;42.122;24.746;2023-04-01T07:21:50;98496.00;;;12.88;78.31
2675;BME280;1347;42.122;24.746;2023-04-01T07:24:25;98501.13;;;12.86;78.11
2675;BME280;1347;42.122;24.746;2023-04-01T07:26:55;98494.44;;;12.83;78.26
2675;BME280;1347;42.122;24.746;2023-04-01T07:29:22;98486.66;;;12.78;78.61
2675;BME280;1347;42.122;24.746;2023-04-01T07:32:18;98481.81;;;12.89;78.96
2675;BME280;1347;42.122;24.746;2023-04-01T07:34:55;98483.94;;;13.12;78.34
2675;BME280;1347;42.122;24.746;2023-04-01T07:37:29;98494.53;;;13.14;78.51
2675;BME280;1347;42.122;24.746;2023-04-01T07:40:05;98498.28;;;13.31;77.87
2675;BME280;1347;42.122;24.746;2023-04-01T07:42:43;98486.13;;;13.55;77.19
2675;BME280;1347;42.122;24.746;2023-04-01T07:45:19;98485.06;;;13.49;77.43
2675;BME280;1347;42.122;24.746;2023-04-01T07:48:01;98483.75;;;13.57;77.08
2675;BME280;1347;42.122;24.746;2023-04-01T07:50:32;98477.09;;;13.54;77.04
2675;BME280;1347;42.122;24.746;2023-04-01T07:53:10;98474.56;;;13.67;77.18
2675;BME280;1347;42.122;24.746;2023-04-01T07:55:45;98484.50;;;13.88;76.35
2675;BME280;1347;42.122;24.746;2023-04-01T07:58:17;98484.53;;;14.11;75.36
2675;BME280;1347;42.122;24.746;2023-04-01T08:00:51;98479.88;;;14.31;74.13
2675;BME280;1347;42.122;24.746;2023-04-01T08:03:37;98482.47;;;14.42;74.35
2675;BME280;1347;42.122;24.746;2023-04-01T08:06:11;98473.25;;;14.25;73.96
2675;BME280;1347;42.122;24.746;2023-04-01T08:08:50;98469.84;;;14.18;74.81
2675;BME280;1347;42.122;24.746;2023-04-01T08:11:31;98464.25;;;13.98;75.08
2675;BME280;1347;42.122;24.746;2023-04-01T08:14:10;98460.19;;;14.06;75.44
2675;BME280;1347;42.122;24.746;2023-04-01T08:16:46;98457.41;;;14.33;74.67
2675;BME280;1347;42.122;24.746;2023-04-01T08:19:20;98441.22;;;14.35;74.31
2675;BME280;1347;42.122;24.746;2023-04-01T08:21:55;98436.03;;;14.37;74.71
2675;BME280;1347;42.122;24.746;2023-04-01T08:24:27;98444.50;;;14.26;75.00
2675;BME280;1347;42.122;24.746;2023-04-01T08:27:00;98440.63;;;14.24;74.71
2675;BME280;1347;42.122;24.746;2023-04-01T08:29:37;98432.84;;;14.42;74.83
2675;BME280;1347;42.122;24.746;2023-04-01T08:32:09;98433.44;;;14.30;73.96
2675;BME280;1347;42.122;24.746;2023-04-01T08:34:40;98432.09;;;14.15;75.04
2675;BME280;1347;42.122;24.746;2023-04-01T08:37:11;98422.44;;;14.26;74.62
2675;BME280;1347;42.122;24.746;2023-04-01T08:39:46;98416.16;;;14.26;74.84
2675;BME280;1347;42.122;24.746;2023-04-01T08:42:45;98418.50;;;14.51;74.63
2675;BME280;1347;42.122;24.746;2023-04-01T08:45:39;98414.50;;;14.75;73.13
2675;BME280;1347;42.122;24.746;2023-04-01T08:48:22;98407.03;;;15.12;71.83
2675;BME280;1347;42.122;24.746;2023-04-01T08:51:16;98400.19;;;15.72;69.66
2675;BME280;1347;42.122;24.746;2023-04-01T08:54:26;98389.91;;;16.05;68.40
2675;BME280;1347;42.122;24.746;2023-04-01T08:57:01;98387.41;;;16.55;66.67
2675;BME280;1347;42.122;24.746;2023-04-01T08:59:45;98388.19;;;16.85;65.27
2675;BME280;1347;42.122;24.746;2023-04-01T09:02:30;98380.31;;;16.83;64.53
2675;BME280;1347;42.122;24.746;2023-04-01T09:05:38;98367.25;;;16.84;64.24
2675;BME280;1347;42.122;24.746;2023-04-01T09:08:16;98366.00;;;16.43;65.25
2675;BME280;1347;42.122;24.746;2023-04-01T09:11:06;98355.78;;;16.40;65.99
2675;BME280;1347;42.122;24.746;2023-04-01T09:16:51;98341.72;;;16.35;65.74
2675;BME280;1347;42.122;24.746;2023-04-01T09:19:31;98336.56;;;16.20;65.87
2675;BME280;1347;42.122;24.746;2023-04-01T09:22:25;98333.06;;;16.04;66.92
2675;BME280;1347;42.122;24.746;2023-04-01T09:25:30;98324.34;;;16.05;66.55
2675;BME280;1347;42.122;24.746;2023-04-01T09:28:10;98316.41;;;16.07;66.32
2675;BME280;1347;42.122;24.746;2023-04-01T09:30:48;98309.06;;;16.01;66.83
2675;BME280;1347;42.122;24.746;2023-04-01T09:36:47;98305.69;;;16.38;65.81
2675;BME280;1347;42.122;24.746;2023-04-01T09:39:35;98297.91;;;16.62;65.13
2675;BME280;1347;42.122;24.746;2023-04-01T09:42:29;98298.94;;;16.81;64.47
2675;BME280;1347;42.122;24.746;2023-04-01T09:45:07;98299.72;;;16.69;63.46
2675;BME280;1347;42.122;24.746;2023-04-01T09:47:45;98309.38;;;16.89;63.28
2675;BME280;1347;42.122;24.746;2023-04-01T09:50:27;98322.47;;;17.27;62.69
2675;BME280;1347;42.122;24.746;2023-04-01T09:53:14;98312.34;;;17.58;61.43
2675;BME280;1347;42.122;24.746;2023-04-01T09:59:37;98302.84;;;18.28;58.32
2675;BME280;1347;42.122;24.746;2023-04-01T10:02:38;98277.13;;;19.02;57.00
2675;BME280;1347;42.122;24.746;2023-04-01T10:08:49;98271.03;;;17.98;58.16
2675;BME280;1347;42.122;24.746;2023-04-01T10:11:41;98253.13;;;17.18;60.83
2675;BME280;1347;42.122;24.746;2023-04-01T10:17:41;98246.91;;;16.76;63.01
2675;BME280;1347;42.122;24.746;2023-04-01T10:20:25;98240.59;;;17.01;62.67
2675;BME280;1347;42.122;24.746;2023-04-01T10:23:11;98230.97;;;17.18;61.85
2675;BME280;1347;42.122;24.746;2023-04-01T10:38:06;98207.75;;;18.06;60.16
2675;BME280;1347;42.122;24.746;2023-04-01T10:40:57;98203.47;;;18.36;58.76
2675;BME280;1347;42.122;24.746;2023-04-01T10:43:55;98184.31;;;18.51;58.21
2675;BME280;1347;42.122;24.746;2023-04-01T10:49:52;98152.69;;;18.48;57.71
2675;BME280;1347;42.122;24.746;2023-04-01T10:53:00;98149.53;;;18.37;58.16
2675;BME280;1347;42.122;24.746;2023-04-01T10:56:00;98151.66;;;18.02;59.85
2675;BME280;1347;42.122;24.746;2023-04-01T11:04:58;98106.09;;;17.25;62.02
2675;BME280;1347;42.122;24.746;2023-04-01T11:11:15;98112.94;;;17.55;61.49
2675;BME280;1347;42.122;24.746;2023-04-01T11:20:36;98096.50;;;18.75;58.15
2675;BME280;1347;42.122;24.746;2023-04-01T11:26:20;98087.31;;;19.24;57.08
2675;BME280;1347;42.122;24.746;2023-04-01T11:29:13;98080.88;;;21.13;53.80
2675;BME280;1347;42.122;24.746;2023-04-01T11:31:55;98098.31;;;22.64;48.64
2675;BME280;1347;42.122;24.746;2023-04-01T11:34:54;98092.50;;;23.43;47.02
2675;BME280;1347;42.122;24.746;2023-04-01T11:37:37;98088.81;;;23.11;47.62
2675;BME280;1347;42.122;24.746;2023-04-01T11:40:17;98078.06;;;22.34;47.96
2675;BME280;1347;42.122;24.746;2023-04-01T11:42:55;98069.41;;;23.02;47.04
2675;BME280;1347;42.122;24.746;2023-04-01T11:45:35;98065.56;;;21.86;49.05
2675;BME280;1347;42.122;24.746;2023-04-01T11:48:14;98058.22;;;21.59;50.19
2675;BME280;1347;42.122;24.746;2023-04-01T11:50:59;98050.44;;;23.32;47.57
2675;BME280;1347;42.122;24.746;2023-04-01T11:53:41;98046.13;;;22.56;47.52
2675;BME280;1347;42.122;24.746;2023-04-01T11:56:29;98062.19;;;22.61;47.65
2675;BME280;1347;42.122;24.746;2023-04-01T11:59:08;98063.59;;;23.06;46.96
2675;BME280;1347;42.122;24.746;2023-04-01T12:01:49;98054.09;;;23.18;46.94
2675;BME280;1347;42.122;24.746;2023-04-01T12:04:38;98061.53;;;22.01;48.60
2675;BME280;1347;42.122;24.746;2023-04-01T12:07:19;98050.53;;;21.15;50.46
2675;BME280;1347;42.122;24.746;2023-04-01T12:09:53;98038.19;;;21.31;50.83
2675;BME280;1347;42.122;24.746;2023-04-01T12:12:30;98036.09;;;21.41;50.98
2675;BME280;1347;42.122;24.746;2023-04-01T12:15:10;98039.09;;;21.81;49.35
2675;BME280;1347;42.122;24.746;2023-04-01T12:17:47;98028.22;;;21.83;49.36
2675;BME280;1347;42.122;24.746;2023-04-01T12:20:34;98021.97;;;21.74;49.44
2675;BME280;1347;42.122;24.746;2023-04-01T12:23:24;97997.28;;;22.31;48.89
2675;BME280;1347;42.122;24.746;2023-04-01T12:26:15;97989.88;;;23.75;45.58
2675;BME280;1347;42.122;24.746;2023-04-01T12:29:03;97983.34;;;25.17;44.09
2675;BME280;1347;42.122;24.746;2023-04-01T12:31:40;97984.78;;;27.55;40.17
2675;BME280;1347;42.122;24.746;2023-04-01T12:34:32;97980.22;;;30.42;35.69
2675;BME280;1347;42.122;24.746;2023-04-01T12:37:10;97977.72;;;31.86;33.98
2675;BME280;1347;42.122;24.746;2023-04-01T12:39:51;97976.88;;;31.98;32.86
2675;BME280;1347;42.122;24.746;2023-04-01T12:42:38;97963.47;;;33.63;31.57
2675;BME280;1347;42.122;24.746;2023-04-01T12:45:30;97952.22;;;32.56;31.90
2675;BME280;1347;42.122;24.746;2023-04-01T12:48:21;97949.94;;;29.28;35.88
2675;BME280;1347;42.122;24.746;2023-04-01T12:51:11;97938.19;;;27.54;38.13
2675;BME280;1347;42.122;24.746;2023-04-01T12:53:58;97941.06;;;26.27;39.90
2675;BME280;1347;42.122;24.746;2023-04-01T12:56:37;97946.47;;;25.69;40.89
2675;BME280;1347;42.122;24.746;2023-04-01T12:59:23;97937.47;;;25.20;41.24
2675;BME280;1347;42.122;24.746;2023-04-01T13:02:12;97934.78;;;24.78;42.33
2675;BME280;1347;42.122;24.746;2023-04-01T13:05:00;97943.25;;;24.04;43.81
2675;BME280;1347;42.122;24.746;2023-04-01T13:07:52;97935.13;;;24.43;43.32
2675;BME280;1347;42.122;24.746;2023-04-01T13:10:31;97937.44;;;25.09;42.12
2675;BME280;1347;42.122;24.746;2023-04-01T13:13:20;97909.94;;;25.19;42.21
2675;BME280;1347;42.122;24.746;2023-04-01T13:15:52;97908.81;;;24.83;42.16
2675;BME280;1347;42.122;24.746;2023-04-01T13:18:29;97910.75;;;24.60;43.04
2675;BME280;1347;42.122;24.746;2023-04-01T13:21:05;97918.06;;;25.00;42.07
2675;BME280;1347;42.122;24.746;2023-04-01T13:23:50;97920.31;;;24.37;42.74
2675;BME280;1347;42.122;24.746;2023-04-01T13:26:27;97936.84;;;23.61;43.53
2675;BME280;1347;42.122;24.746;2023-04-01T13:29:00;97932.78;;;23.36;44.00
2675;BME280;1347;42.122;24.746;2023-04-01T13:31:38;97940.69;;;22.30;45.13
2675;BME280;1347;42.122;24.746;2023-04-01T13:34:24;97988.78;;;21.32;47.55
2675;BME280;1347;42.122;24.746;2023-04-01T13:37:07;98067.00;;;20.56;49.30
2675;BME280;1347;42.122;24.746;2023-04-01T13:39:52;98066.50;;;19.56;51.67
2675;BME280;1347;42.122;24.746;2023-04-01T13:42:23;98064.50;;;19.01;53.26
2675;BME280;1347;42.122;24.746;2023-04-01T13:44:59;98082.50;;;18.79;54.28
2675;BME280;1347;42.122;24.746;2023-04-01T13:48:00;98086.22;;;18.45;55.54
2675;BME280;1347;42.122;24.746;2023-04-01T13:50:41;98109.44;;;18.29;57.70
2675;BME280;1347;42.122;24.746;2023-04-01T13:56:16;98162.09;;;17.42;59.59
2675;BME280;1347;42.122;24.746;2023-04-01T13:59:02;98145.84;;;17.31;61.17
2675;BME280;1347;42.122;24.746;2023-04-01T14:01:44;98150.00;;;17.14;65.14
2675;BME280;1347;42.122;24.746;2023-04-01T14:07:49;98200.31;;;16.87;70.42
2675;BME280;1347;42.122;24.746;2023-04-01T14:10:39;98206.72;;;16.71;71.85
2675;BME280;1347;42.122;24.746;2023-04-01T14:13:15;98206.34;;;16.56;73.76
2675;BME280;1347;42.122;24.746;2023-04-01T14:20:05;98208.00;;;16.54;76.33
2675;BME280;1347;42.122;24.746;2023-04-01T14:23:24;98205.28;;;16.79;77.54
2675;BME280;1347;42.122;24.746;2023-04-01T14:26:33;98203.22;;;17.30;74.54
2675;BME280;1347;42.122;24.746;2023-04-01T14:29:14;98185.25;;;18.04;71.40
2675;BME280;1347;42.122;24.746;2023-04-01T14:31:54;98179.88;;;18.31;68.81
2675;BME280;1347;42.122;24.746;2023-04-01T14:34:35;98164.72;;;18.85;67.10
2675;BME280;1347;42.122;24.746;2023-04-01T14:37:17;98163.13;;;19.24;63.50
2675;BME280;1347;42.122;24.746;2023-04-01T14:43:33;98148.91;;;18.33;64.91
2675;BME280;1347;42.122;24.746;2023-04-01T14:46:26;98132.31;;;18.11;65.08
2675;BME280;1347;42.122;24.746;2023-04-01T14:49:00;98124.09;;;18.29;64.41
2675;BME280;1347;42.122;24.746;2023-04-01T14:51:31;98125.78;;;18.05;64.58
2675;BME280;1347;42.122;24.746;2023-04-01T14:54:04;98130.69;;;17.57;65.40
2675;BME280;1347;42.122;24.746;2023-04-01T14:56:39;98127.50;;;17.46;67.48
2675;BME280;1347;42.122;24.746;2023-04-01T14:59:10;98136.94;;;17.49;68.12
2675;BME280;1347;42.122;24.746;2023-04-01T15:01:43;98140.97;;;17.35;67.26
2675;BME280;1347;42.122;24.746;2023-04-01T15:04:37;98142.00;;;17.16;68.47
2675;BME280;1347;42.122;24.746;2023-04-01T15:07:23;98132.22;;;16.89;68.69
2675;BME280;1347;42.122;24.746;2023-04-01T15:10:01;98130.78;;;16.47;70.24
2675;BME280;1347;42.122;24.746;2023-04-01T15:12:37;98124.03;;;16.35;71.31